createdAt,value
2023-06-08T00:01:36.599Z,7.47
2023-06-08T00:04:42.089Z,7.63
2023-06-08T00:07:47.914Z,8.23
2023-06-08T00:10:52.703Z,8.63
2023-06-08T00:13:56.808Z,7.72
2023-06-08T00:17:04.077Z,8.25
2023-06-08T00:20:10.413Z,7.68
2023-06-08T00:23:15.968Z,7.60
2023-06-08T00:26:19.963Z,8.18
2023-06-08T00:29:24.289Z,7.88
2023-06-08T00:32:28.276Z,7.85
2023-06-08T00:35:32.736Z,8.23
2023-06-08T00:38:37.021Z,7.80
2023-06-08T00:41:41.285Z,7.53
2023-06-08T00:44:45.464Z,8.18
2023-06-08T00:47:49.507Z,7.88
2023-06-08T00:50:56.495Z,7.95
2023-06-08T00:54:04.177Z,7.53
2023-06-08T00:57:09.886Z,8.82
2023-06-08T01:00:14.749Z,8.48
2023-06-08T01:03:20.750Z,9.10
2023-06-08T01:06:24.618Z,8.60
2023-06-08T01:09:42.711Z,9.02
2023-06-08T01:12:49.792Z,9.95
2023-06-08T01:16:03.732Z,9.30
2023-06-08T01:19:12.361Z,10.05
2023-06-08T01:22:29.933Z,9.50
2023-06-08T01:25:37.052Z,10.13
2023-06-08T01:28:41.082Z,10.65
2023-06-08T01:31:45.525Z,10.57
2023-06-08T01:34:50.124Z,10.38
2023-06-08T01:38:03.620Z,10.60
2023-06-08T01:41:14.900Z,10.43
2023-06-08T01:44:21.856Z,11.02
2023-06-08T01:47:32.612Z,10.50
2023-06-08T01:50:38.378Z,10.30
2023-06-08T01:53:42.847Z,11.27
2023-06-08T01:56:47.359Z,11.05
2023-06-08T01:59:51.797Z,10.63
2023-06-08T02:02:55.910Z,12.10
2023-06-08T02:06:00.154Z,10.88
2023-06-08T02:09:04.480Z,11.90
2023-06-08T02:12:09.184Z,12.63
2023-06-08T02:15:13.170Z,12.80
2023-06-08T02:18:20.404Z,12.10
2023-06-08T02:21:24.146Z,12.32
2023-06-08T02:24:28.219Z,11.75
2023-06-08T02:27:37.161Z,12.15
2023-06-08T02:30:41.718Z,13.07
2023-06-08T02:33:46.294Z,12.23
2023-06-08T02:36:50.677Z,13.07
2023-06-08T02:39:54.648Z,12.88
2023-06-08T02:43:01.876Z,13.68
2023-06-08T02:46:06.069Z,13.32
2023-06-08T02:49:10.506Z,13.02
2023-06-08T02:52:14.903Z,12.57
2023-06-08T02:55:18.874Z,12.30
2023-06-08T02:58:24.476Z,13.27
2023-06-08T03:01:31.727Z,12.48
2023-06-08T03:04:35.975Z,12.23
2023-06-08T03:07:42.021Z,13.10
2023-06-08T03:10:46.109Z,12.82
2023-06-08T03:13:50.821Z,12.75
2023-06-08T03:16:54.834Z,12.55
2023-06-08T03:20:00.974Z,13.35
2023-06-08T03:23:08.915Z,12.48
2023-06-08T03:26:12.907Z,13.15
2023-06-08T03:29:16.628Z,14.13
2023-06-08T03:32:21.279Z,12.95
2023-06-08T03:35:25.902Z,13.00
2023-06-08T03:38:30.510Z,12.45
2023-06-08T03:41:34.663Z,12.95
2023-06-08T03:44:38.604Z,13.43
2023-06-08T03:47:43.109Z,13.70
2023-06-08T03:50:47.150Z,11.90
2023-06-08T03:53:52.320Z,12.18
2023-06-08T03:56:56.989Z,12.40
2023-06-08T04:00:02.310Z,12.48
2023-06-08T04:03:06.790Z,11.57
2023-06-08T04:06:10.951Z,12.02
2023-06-08T04:09:14.997Z,11.75
2023-06-08T04:12:18.757Z,11.57
2023-06-08T04:15:22.685Z,11.77
2023-06-08T04:18:26.772Z,11.90
2023-06-08T04:21:31.862Z,11.85
2023-06-08T04:24:36.516Z,11.18
2023-06-08T04:27:40.683Z,11.45
2023-06-08T04:30:45.362Z,10.98
2023-06-08T04:33:49.104Z,11.15
2023-06-08T04:36:53.071Z,10.88
2023-06-08T04:39:57.914Z,11.68
2023-06-08T04:43:03.202Z,11.65
2023-06-08T04:46:06.999Z,11.80
2023-06-08T04:49:13.748Z,9.30
2023-06-08T04:52:20.468Z,10.77
2023-06-08T04:55:24.559Z,10.45
2023-06-08T04:58:29.650Z,11.27
2023-06-08T05:01:33.671Z,10.85
2023-06-08T05:04:37.696Z,10.50
2023-06-08T05:07:43.531Z,10.00
2023-06-08T05:10:47.728Z,8.90
2023-06-08T05:13:51.538Z,9.95
2023-06-08T05:16:55.295Z,10.65
2023-06-08T05:19:59.540Z,10.05
2023-06-08T05:23:03.988Z,10.65
2023-06-08T05:26:08.208Z,10.75
2023-06-08T05:29:12.402Z,10.88
2023-06-08T05:32:16.285Z,10.65
2023-06-08T05:35:20.680Z,11.25
2023-06-08T05:38:26.177Z,10.52
2023-06-08T05:41:31.236Z,9.85
2023-06-08T05:44:35.231Z,9.95
2023-06-08T05:47:39.536Z,9.82
2023-06-08T05:50:43.672Z,9.75
2023-06-08T05:53:48.199Z,9.82
2023-06-08T05:56:52.510Z,9.57
2023-06-08T05:59:56.379Z,9.25
2023-06-08T06:03:03.938Z,10.10
2023-06-08T06:06:08.430Z,9.95
2023-06-08T06:09:12.926Z,9.68
2023-06-08T06:12:17.116Z,10.70
2023-06-08T06:15:21.477Z,10.20
2023-06-08T06:18:25.740Z,11.15
2023-06-08T06:21:29.699Z,11.45
2023-06-08T06:24:33.701Z,10.98
2023-06-08T06:27:45.214Z,11.57
2023-06-08T06:30:52.307Z,10.50
2023-06-08T06:33:56.303Z,9.90
2023-06-08T06:37:00.407Z,10.95
2023-06-08T06:40:06.192Z,9.52
2023-06-08T06:43:10.768Z,10.82
2023-06-08T06:46:20.465Z,11.55
2023-06-08T06:49:24.422Z,9.75
2023-06-08T06:52:28.484Z,10.00
2023-06-08T06:55:35.630Z,9.52
2023-06-08T06:58:39.674Z,10.15
2023-06-08T07:01:43.948Z,9.93
2023-06-08T07:04:47.975Z,9.02
2023-06-08T07:07:51.910Z,9.05
2023-06-08T07:10:56.301Z,8.52
2023-06-08T07:14:00.380Z,8.38
2023-06-08T07:17:04.910Z,8.38
2023-06-08T07:20:09.372Z,7.72
2023-06-08T07:23:37.968Z,8.30
2023-06-08T07:26:38.008Z,7.82
2023-06-08T07:29:42.102Z,6.90
2023-06-08T07:32:47.013Z,7.40
2023-06-08T07:35:51.157Z,8.02
2023-06-08T07:38:57.281Z,7.10
2023-06-08T07:42:01.444Z,7.70
2023-06-08T07:45:06.107Z,6.95
2023-06-08T07:48:10.270Z,6.40
2023-06-08T07:51:15.566Z,6.68
2023-06-08T07:54:20.634Z,7.03
2023-06-08T07:57:24.812Z,6.57
2023-06-08T08:00:28.933Z,7.32
2023-06-08T08:03:37.862Z,7.10
2023-06-08T08:06:42.321Z,7.57
2023-06-08T08:09:46.140Z,7.13
2023-06-08T08:12:50.440Z,7.40
2023-06-08T08:15:54.674Z,7.30
2023-06-08T08:18:58.752Z,7.03
2023-06-08T08:22:02.793Z,7.10
2023-06-08T08:25:07.884Z,7.32
2023-06-08T08:28:12.218Z,6.47
2023-06-08T08:31:16.200Z,7.00
2023-06-08T08:34:20.295Z,7.20
2023-06-08T08:37:24.372Z,7.20
2023-06-08T08:40:28.652Z,7.20
2023-06-08T08:43:46.322Z,7.10
2023-06-08T08:46:51.081Z,7.70
2023-06-08T08:50:07.470Z,7.30
2023-06-08T08:53:13.059Z,7.47
2023-06-08T08:56:21.811Z,7.57
2023-06-08T08:59:28.447Z,7.80
2023-06-08T09:02:36.123Z,7.20
2023-06-08T09:05:40.099Z,7.70
2023-06-08T09:08:44.344Z,7.25
2023-06-08T09:12:10.899Z,7.00
2023-06-08T09:15:38.917Z,7.53
2023-06-08T09:18:45.045Z,6.90
2023-06-08T09:21:49.593Z,7.28
2023-06-08T09:24:53.330Z,7.30
2023-06-08T09:28:14.176Z,7.90
2023-06-08T09:31:19.167Z,7.18
2023-06-08T09:34:23.213Z,7.03
2023-06-08T09:37:28.176Z,3.90
2023-06-08T09:40:32.385Z,6.85
2023-06-08T09:43:36.442Z,9.52
2023-06-08T09:46:42.475Z,12.85
2023-06-08T09:49:46.558Z,7.28
2023-06-08T09:52:52.085Z,7.00
2023-06-08T09:56:00.225Z,7.07
2023-06-08T09:59:09.823Z,6.32
2023-06-08T10:02:31.295Z,10.00
2023-06-08T10:05:39.666Z,7.57
2023-06-08T10:08:48.226Z,4.18
2023-06-08T10:11:52.759Z,6.50
2023-06-08T10:14:58.755Z,8.35
2023-06-08T10:18:04.138Z,8.20
2023-06-08T10:21:08.415Z,8.82
2023-06-08T10:24:13.238Z,9.00
2023-06-08T10:27:24.889Z,9.57
2023-06-08T10:30:40.645Z,8.48
2023-06-08T10:33:44.816Z,8.32
2023-06-08T10:36:49.105Z,8.77
2023-06-08T10:39:53.358Z,9.32
2023-06-08T10:43:10.310Z,9.00
2023-06-08T10:46:41.439Z,8.95
2023-06-08T10:49:47.031Z,10.05
2023-06-08T10:52:51.110Z,9.43
2023-06-08T10:55:54.907Z,9.43
2023-06-08T10:58:59.198Z,7.90
2023-06-08T11:02:04.906Z,7.40
2023-06-08T11:05:09.398Z,7.68
2023-06-08T11:08:13.481Z,8.25
2023-06-08T11:11:17.585Z,8.45
2023-06-08T11:14:22.368Z,8.68
2023-06-08T11:17:26.848Z,8.45
2023-06-08T11:20:31.272Z,9.02
2023-06-08T11:23:35.569Z,8.40
2023-06-08T11:26:45.812Z,9.30
2023-06-08T11:29:56.472Z,9.98
2023-06-08T11:33:01.133Z,9.82
2023-06-08T11:36:04.910Z,9.50
2023-06-08T11:39:12.185Z,9.73
2023-06-08T11:42:17.009Z,9.73
2023-06-08T11:45:22.010Z,9.63
2023-06-08T11:48:26.372Z,8.15
2023-06-08T11:51:31.956Z,7.18
2023-06-08T11:54:36.321Z,6.00
2023-06-08T11:57:42.866Z,5.38
2023-06-08T12:00:47.074Z,5.63
2023-06-08T12:03:51.476Z,5.78
2023-06-08T12:06:56.441Z,5.28
2023-06-08T12:10:01.547Z,5.20
2023-06-08T12:13:10.617Z,6.50
2023-06-08T12:16:15.249Z,6.85
2023-06-08T12:19:19.186Z,6.70
2023-06-08T12:22:23.428Z,6.32
2023-06-08T12:25:28.059Z,5.60
2023-06-08T12:28:33.020Z,5.82
2023-06-08T12:31:37.360Z,6.43
2023-06-08T12:34:41.717Z,5.80
2023-06-08T12:37:49.512Z,5.50
2023-06-08T12:40:54.980Z,5.70
2023-06-08T12:43:59.191Z,5.53
2023-06-08T12:47:03.753Z,5.20
2023-06-08T12:50:09.452Z,5.57
2023-06-08T12:53:14.667Z,4.78
2023-06-08T12:56:18.869Z,4.75
2023-06-08T12:59:23.018Z,5.35
2023-06-08T13:02:27.610Z,5.20
2023-06-08T13:05:31.980Z,4.75
2023-06-08T13:08:36.718Z,5.18
2023-06-08T13:11:41.009Z,5.50
2023-06-08T13:14:45.179Z,5.47
2023-06-08T13:17:49.378Z,4.80
2023-06-08T13:20:56.533Z,5.38
2023-06-08T13:24:02.498Z,4.65
2023-06-08T13:27:07.668Z,5.43
2023-06-08T13:30:12.595Z,4.95
2023-06-08T13:33:16.635Z,5.43
2023-06-08T13:36:20.716Z,5.20
2023-06-08T13:39:24.904Z,5.05
2023-06-08T13:42:29.183Z,4.68
2023-06-08T13:45:34.960Z,5.30
2023-06-08T13:48:38.895Z,5.57
2023-06-08T13:51:43.352Z,5.30
2023-06-08T13:54:47.846Z,5.00
2023-06-08T13:57:52.360Z,4.90
2023-06-08T14:00:56.830Z,5.57
2023-06-08T14:04:08.644Z,5.70
2023-06-08T14:11:37.747Z,5.40
2023-06-08T14:14:41.890Z,5.28
2023-06-08T14:17:46.627Z,5.55
2023-06-08T14:20:50.853Z,5.65
2023-06-08T14:23:57.313Z,5.70
2023-06-08T14:27:01.892Z,5.60
2023-06-08T14:30:07.141Z,5.20
2023-06-08T14:33:12.944Z,6.03
2023-06-08T14:36:17.675Z,6.60
2023-06-08T14:39:21.702Z,5.97
2023-06-08T14:42:26.192Z,5.70
2023-06-08T14:45:30.463Z,5.93
2023-06-08T14:48:34.676Z,5.90
2023-06-08T14:51:39.189Z,6.10
2023-06-08T14:54:43.780Z,6.40
2023-06-08T14:57:48.345Z,6.07
2023-06-08T15:00:52.849Z,6.32
2023-06-08T15:03:57.380Z,5.90
2023-06-08T15:07:01.372Z,5.78
2023-06-08T15:10:06.129Z,5.45
2023-06-08T15:13:10.679Z,5.75
2023-06-08T15:16:14.766Z,4.20
2023-06-08T15:19:18.926Z,3.90
2023-06-08T15:22:23.148Z,4.13
2023-06-08T15:25:27.496Z,4.00
2023-06-08T15:28:31.812Z,4.07
2023-06-08T15:31:36.057Z,4.30
2023-06-08T15:34:40.187Z,4.10
2023-06-08T15:37:44.208Z,4.05
2023-06-08T15:40:49.987Z,4.40
2023-06-08T15:43:54.196Z,4.78
2023-06-08T15:47:01.286Z,4.28
2023-06-08T15:50:06.277Z,4.45
2023-06-08T15:53:10.397Z,4.10
2023-06-08T15:56:14.255Z,4.10
2023-06-08T15:59:18.480Z,3.80
2023-06-08T16:02:23.402Z,3.30
2023-06-08T16:05:27.428Z,3.38
2023-06-08T16:08:31.548Z,3.50
2023-06-08T16:11:36.878Z,3.88
2023-06-08T16:14:41.205Z,3.40
2023-06-08T16:17:45.339Z,3.50
2023-06-08T16:20:51.732Z,3.83
2023-06-08T16:23:56.386Z,3.42
2023-06-08T16:27:00.799Z,3.92
2023-06-08T16:30:06.701Z,3.50
2023-06-08T16:33:12.007Z,3.40
2023-06-08T16:36:16.321Z,3.20
2023-06-08T16:39:20.985Z,3.47
2023-06-08T16:42:25.367Z,3.25
2023-06-08T16:45:32.513Z,3.30
2023-06-08T16:48:36.456Z,3.70
2023-06-08T16:51:40.589Z,3.97
2023-06-08T16:54:44.714Z,4.28
2023-06-08T16:57:48.948Z,4.10
2023-06-08T17:00:52.921Z,4.03
2023-06-08T17:03:58.070Z,4.78
2023-06-08T17:07:02.167Z,4.70
2023-06-08T17:10:06.701Z,4.60
2023-06-08T17:13:11.769Z,4.53
2023-06-08T17:16:16.066Z,4.47
2023-06-08T17:19:20.106Z,4.75
2023-06-08T17:22:25.501Z,5.45
2023-06-08T17:25:32.871Z,5.05
2023-06-08T17:28:37.073Z,4.80
2023-06-08T17:31:42.184Z,5.13
2023-06-08T17:34:46.599Z,6.80
2023-06-08T17:37:50.772Z,7.95
2023-06-08T17:40:55.050Z,7.07
2023-06-08T17:44:00.146Z,6.40
2023-06-08T17:47:05.300Z,6.65
2023-06-08T17:50:10.079Z,6.32
2023-06-08T17:53:13.926Z,6.55
2023-06-08T17:56:17.870Z,5.47
2023-06-08T17:59:22.149Z,5.82
2023-06-08T18:02:26.662Z,5.20
2023-06-08T18:05:33.805Z,5.20
2023-06-08T18:08:38.016Z,5.45
2023-06-08T18:11:42.309Z,5.57
2023-06-08T18:14:46.300Z,10.20
2023-06-08T18:17:50.691Z,6.18
2023-06-08T18:20:55.027Z,7.95
2023-06-08T18:23:59.286Z,5.88
2023-06-08T18:27:03.885Z,5.72
2023-06-08T18:30:09.438Z,5.95
2023-06-08T18:33:15.082Z,6.20
2023-06-08T18:36:19.200Z,5.88
2023-06-08T18:39:23.633Z,7.93
2023-06-08T18:42:27.776Z,5.90
2023-06-08T18:45:31.860Z,9.55
2023-06-08T18:48:36.445Z,6.45
2023-06-08T18:51:40.894Z,6.07
2023-06-08T18:54:46.749Z,6.20
2023-06-08T18:57:52.021Z,5.57
2023-06-08T19:00:56.220Z,5.53
2023-06-08T19:04:00.406Z,10.00
2023-06-08T19:07:04.787Z,7.57
2023-06-08T19:10:09.909Z,4.60
2023-06-08T19:13:21.403Z,5.63
2023-06-08T19:16:37.085Z,6.07
2023-06-08T19:19:41.122Z,6.20
2023-06-08T19:22:45.485Z,5.90
2023-06-08T19:25:49.359Z,5.95
2023-06-08T19:28:53.399Z,6.60
2023-06-08T19:32:00.721Z,6.47
2023-06-08T19:35:05.389Z,6.35
2023-06-08T19:38:09.400Z,6.07
2023-06-08T19:41:14.604Z,6.35
2023-06-08T19:44:24.082Z,6.65
2023-06-08T19:47:30.010Z,6.63
2023-06-08T19:50:34.338Z,6.88
2023-06-08T19:53:39.311Z,6.88
2023-06-08T19:56:46.115Z,7.65
2023-06-08T19:59:50.008Z,7.25
2023-06-08T20:02:53.984Z,7.10
2023-06-08T20:05:58.267Z,7.72
2023-06-08T20:09:02.747Z,7.15
2023-06-08T20:12:07.656Z,7.55
2023-06-08T20:15:11.806Z,6.10
2023-06-08T20:18:20.055Z,6.68
2023-06-08T20:21:24.749Z,6.20
2023-06-08T20:24:28.624Z,7.20
2023-06-08T20:27:33.694Z,6.45
2023-06-08T20:30:38.160Z,6.72
2023-06-08T20:33:42.830Z,5.90
2023-06-08T20:36:47.260Z,5.90
2023-06-08T20:39:51.133Z,6.00
2023-06-08T20:42:55.196Z,6.15
2023-06-08T20:45:59.882Z,6.70
2023-06-08T20:49:06.354Z,5.68
2023-06-08T20:52:11.126Z,5.93
2023-06-08T20:55:14.895Z,6.00
2023-06-08T20:58:18.938Z,6.35
2023-06-08T21:01:23.706Z,6.57
2023-06-08T21:04:30.903Z,6.00
2023-06-08T21:07:36.303Z,6.03
2023-06-08T21:10:40.662Z,5.78
2023-06-08T21:13:44.853Z,6.03
2023-06-08T21:16:49.503Z,6.32
2023-06-08T21:19:53.502Z,6.40
2023-06-08T21:22:57.143Z,6.38
2023-06-08T21:26:01.153Z,6.60
2023-06-08T21:29:07.414Z,6.60
2023-06-08T21:32:11.605Z,6.72
2023-06-08T21:35:15.788Z,7.03
2023-06-08T21:38:20.083Z,6.55
2023-06-08T21:41:24.549Z,6.88
2023-06-08T21:44:28.750Z,6.75
2023-06-08T21:47:32.870Z,6.57
2023-06-08T21:50:36.765Z,6.78
2023-06-08T21:53:41.116Z,7.22
2023-06-08T21:56:45.147Z,7.03
2023-06-08T21:59:48.920Z,7.20
2023-06-08T22:02:52.832Z,6.97
2023-06-08T22:05:56.980Z,6.60
2023-06-08T22:09:01.116Z,7.22
2023-06-08T22:12:06.620Z,6.93
2023-06-08T22:15:11.045Z,6.88
2023-06-08T22:18:16.236Z,7.45
2023-06-08T22:21:20.748Z,7.50
2023-06-08T22:24:25.005Z,7.05
2023-06-08T22:27:29.712Z,6.80
2023-06-08T22:30:33.679Z,7.30
2023-06-08T22:33:40.804Z,7.53
2023-06-08T22:36:44.891Z,6.80
2023-06-08T22:39:48.851Z,7.60
2023-06-08T22:42:53.119Z,7.53
2023-06-08T22:45:56.959Z,7.53
2023-06-08T22:49:02.429Z,7.35
2023-06-08T22:52:13.415Z,7.10
2023-06-08T22:55:17.735Z,7.35
2023-06-08T22:58:21.774Z,7.97
2023-06-08T23:01:25.966Z,7.40
2023-06-08T23:04:34.401Z,8.27
2023-06-08T23:07:39.848Z,7.55
2023-06-08T23:10:44.376Z,7.97
2023-06-08T23:13:48.940Z,8.07
2023-06-08T23:16:53.187Z,7.97
2023-06-08T23:19:57.978Z,8.13
2023-06-08T23:23:03.123Z,7.43
2023-06-08T23:26:07.349Z,8.52
2023-06-08T23:29:11.616Z,8.77
2023-06-08T23:32:17.031Z,9.10
2023-06-08T23:35:21.181Z,9.18
2023-06-08T23:38:26.051Z,8.88
2023-06-08T23:41:30.268Z,8.35
2023-06-08T23:44:35.160Z,8.55
2023-06-08T23:47:39.198Z,9.30
2023-06-08T23:50:43.168Z,8.90
2023-06-08T23:53:47.290Z,9.25
2023-06-08T23:56:51.644Z,9.02
2023-06-08T23:59:55.906Z,8.15
